Time;durP1;ratioP1;P1;durP2;ratioP2;P2;SDS_P1;SDS_P2;PMS_P1;PMS_P2;Temp;Humidity;BMP_temperature;BMP_pressure;BME280_temperature;BME280_humidity;BME280_pressure;Samples;Min_cycle;Max_cycle;Signal;HPM_P1;HPM_P2
2022/07/28 00:01:15;;;;;;;9.48;3.30;;;;;;;13.54;67.60;100622.38;5012697;28;20030;-70
2022/07/28 00:03:47;;;;;;;7.47;2.80;;;;;;;13.53;67.77;100623.66;5013034;28;20026;-70
2022/07/28 00:06:16;;;;;;;7.22;2.75;;;;;;;13.50;67.94;100618.88;5013277;28;20033;-70
2022/07/28 00:08:41;;;;;;;9.27;3.10;;;;;;;13.46;68.11;100626.94;5011648;28;20122;-69
2022/07/28 00:11:08;;;;;;;5.10;3.13;;;;;;;13.44;67.98;100629.53;5011169;28;20156;-69
2022/07/28 00:13:33;;;;;;;3.83;2.92;;;;;;;13.38;68.05;100617.19;5012920;28;20311;-69
2022/07/28 00:15:58;;;;;;;9.80;4.20;;;;;;;13.39;68.39;100631.00;5012841;28;20026;-69
2022/07/28 00:18:24;;;;;;;18.83;13.45;;;;;;;13.34;68.26;100630.97;5012972;28;20120;-69
2022/07/28 00:20:49;;;;;;;21.33;16.60;;;;;;;13.24;68.64;100618.06;5012835;28;20053;-68
2022/07/28 00:23:16;;;;;;;11.05;7.65;;;;;;;13.25;68.89;100625.38;5012572;28;20065;-69
2022/07/28 00:25:42;;;;;;;16.30;10.48;;;;;;;13.21;68.70;100625.59;5013621;28;20041;-69
2022/07/28 00:28:08;;;;;;;11.75;8.80;;;;;;;13.17;68.88;100627.09;5014143;28;20080;-68
2022/07/28 00:30:35;;;;;;;14.20;8.80;;;;;;;13.12;68.95;100637.22;5013932;28;20456;-69
2022/07/28 00:33:02;;;;;;;11.25;6.78;;;;;;;13.09;69.27;100632.50;5012062;28;20052;-69
2022/07/28 00:35:27;;;;;;;7.68;4.43;;;;;;;13.05;69.03;100634.78;5013958;28;20082;-69
2022/07/28 00:37:53;;;;;;;5.55;4.18;;;;;;;13.04;69.00;100638.97;5013782;28;20423;-68
2022/07/28 00:40:19;;;;;;;6.68;4.30;;;;;;;13.03;68.98;100628.78;5013658;28;20053;-69
2022/07/28 00:42:46;;;;;;;6.75;4.07;;;;;;;12.99;68.99;100631.06;5013492;28;20042;-69
2022/07/28 00:45:20;;;;;;;10.68;4.47;;;;;;;12.93;69.20;100628.13;5013773;28;20506;-68
2022/07/28 00:47:46;;;;;;;8.48;4.38;;;;;;;12.79;69.35;100611.78;5013980;28;20479;-68
2022/07/28 00:50:13;;;;;;;7.93;4.38;;;;;;;12.90;69.46;100622.59;5013855;28;20033;-69
2022/07/28 00:52:39;;;;;;;7.43;4.88;;;;;;;12.89;69.67;100629.63;4995456;28;20029;-68
2022/07/28 00:55:06;;;;;;;8.93;5.60;;;;;;;12.86;69.64;100622.81;5011329;28;20079;-69
2022/07/28 00:57:31;;;;;;;13.57;6.18;;;;;;;12.83;70.12;100629.56;5012539;28;20101;-69
2022/07/28 00:59:57;;;;;;;10.88;7.15;;;;;;;12.78;70.27;100627.41;5011326;28;20124;-69
2022/07/28 01:02:22;;;;;;;12.27;7.28;;;;;;;12.73;70.16;100624.44;5012448;28;20537;-69
2022/07/28 01:04:51;;;;;;;9.52;6.70;;;;;;;12.68;70.23;100626.75;4994636;28;20030;-70
2022/07/28 01:07:31;;;;;;;9.07;7.15;;;;;;;12.62;70.23;100625.88;5011109;28;20033;-70
2022/07/28 01:10:11;;;;;;;11.07;5.88;;;;;;;12.57;70.76;100623.72;5011895;28;20053;-70
2022/07/28 01:12:41;;;;;;;10.10;5.38;;;;;;;12.51;70.51;100631.44;5012017;28;20041;-68
2022/07/28 01:15:22;;;;;;;9.95;6.57;;;;;;;12.46;70.83;100628.47;5013508;28;20061;-68
2022/07/28 01:18:08;;;;;;;11.37;6.50;;;;;;;12.44;70.79;100631.88;5012878;28;20030;-68
2022/07/28 01:20:46;;;;;;;9.98;6.40;;;;;;;12.38;71.17;100633.84;5012306;28;20058;-69
2022/07/28 01:23:31;;;;;;;9.30;5.85;;;;;;;12.40;70.73;100639.88;5013559;28;20101;-68
2022/07/28 01:26:18;;;;;;;8.02;5.78;;;;;;;12.33;70.79;100628.78;5013602;28;20041;-69
2022/07/28 01:29:06;;;;;;;6.93;4.63;;;;;;;12.21;71.23;100635.63;5012480;28;20471;-69
2022/07/28 01:31:39;;;;;;;6.15;4.38;;;;;;;12.20;71.32;100639.78;5012142;28;20053;-69
2022/07/28 01:34:12;;;;;;;6.13;5.30;;;;;;;12.18;72.10;100639.47;5012312;28;20097;-69
2022/07/28 01:36:50;;;;;;;8.95;5.45;;;;;;;12.21;72.06;100638.47;5010872;28;20029;-71
2022/07/28 01:39:16;;;;;;;12.77;5.22;;;;;;;12.20;71.77;100637.72;5010654;28;20096;-70
2022/07/28 01:41:43;;;;;;;7.40;4.30;;;;;;;12.13;71.78;100640.19;4994359;28;20042;-69
2022/07/28 01:44:15;;;;;;;4.75;3.83;;;;;;;12.16;72.01;100645.69;5012296;28;20105;-69
2022/07/28 01:46:46;;;;;;;4.70;3.25;;;;;;;12.14;72.03;100641.75;4979509;28;20345;-67
2022/07/28 01:49:17;;;;;;;6.75;3.40;;;;;;;12.14;72.17;100644.63;5011886;28;20056;-68
2022/07/28 01:51:43;;;;;;;5.70;3.70;;;;;;;12.16;72.46;100650.63;4995849;28;20383;-69
2022/07/28 01:54:12;;;;;;;5.63;3.42;;;;;;;12.14;72.61;100656.09;4995660;28;20460;-69
2022/07/28 01:56:39;;;;;;;6.05;3.55;;;;;;;12.15;72.67;100651.94;5015579;28;20463;-69
2022/07/28 01:59:08;;;;;;;9.27;4.30;;;;;;;12.12;72.82;100658.66;4999056;28;20065;-68
2022/07/28 02:01:36;;;;;;;11.35;3.20;;;;;;;12.15;73.10;100655.59;5015936;28;20040;-68
2022/07/28 02:04:17;;;;;;;7.22;3.10;;;;;;;12.15;72.90;100652.75;4998731;28;20475;-69
2022/07/28 02:06:45;;;;;;;6.68;3.17;;;;;;;12.13;72.69;100652.44;5014033;28;20045;-69
2022/07/28 02:09:12;;;;;;;4.93;3.03;;;;;;;12.14;73.16;100654.00;5015162;28;20053;-69
2022/07/28 02:11:39;;;;;;;4.95;3.45;;;;;;;12.11;73.31;100646.41;5014373;28;20038;-69
2022/07/28 02:14:13;;;;;;;6.80;3.22;;;;;;;12.09;73.62;100640.38;5014939;28;20490;-70
2022/07/28 02:16:43;;;;;;;8.68;3.75;;;;;;;12.07;73.49;100645.81;5016482;28;20049;-69
2022/07/28 02:19:21;;;;;;;6.47;3.38;;;;;;;12.01;73.47;100650.66;4998565;28;20499;-69
2022/07/28 02:21:48;;;;;;;5.65;3.25;;;;;;;11.95;73.76;100649.00;5016135;28;20029;-69
2022/07/28 02:24:17;;;;;;;5.18;2.92;;;;;;;11.94;73.79;100656.00;4998635;28;20110;-68
2022/07/28 02:26:50;;;;;;;5.45;2.75;;;;;;;11.90;73.79;100652.56;5016225;28;20044;-69
2022/07/28 02:29:18;;;;;;;10.60;3.78;;;;;;;11.88;74.14;100657.97;5014844;28;20033;-68
2022/07/28 02:31:56;;;;;;;6.72;3.47;;;;;;;11.85;74.66;100665.47;4998592;28;20062;-70
2022/07/28 02:34:28;;;;;;;10.43;3.28;;;;;;;11.82;75.09;100657.88;5014686;28;20471;-69
2022/07/28 02:37:08;;;;;;;13.63;5.30;;;;;;;11.81;75.12;100653.44;4998268;28;20127;-69
2022/07/28 02:39:40;;;;;;;4.65;3.70;;;;;;;11.77;75.01;100672.88;5014825;28;20026;-71
2022/07/28 02:42:17;;;;;;;7.17;3.33;;;;;;;11.77;75.44;100665.06;5014849;28;20088;-70
2022/07/28 02:44:55;;;;;;;7.45;3.47;;;;;;;11.68;75.16;100664.38;4997253;28;20057;-69
2022/07/28 02:47:25;;;;;;;4.88;3.25;;;;;;;11.66;75.59;100667.75;5013383;28;20045;-69
2022/07/28 02:49:51;;;;;;;5.55;3.22;;;;;;;11.63;76.48;100670.78;5015442;28;20025;-70
2022/07/28 02:52:18;;;;;;;5.90;3.60;;;;;;;11.64;76.66;100663.78;5014037;28;20371;-69
2022/07/28 02:54:59;;;;;;;6.78;3.28;;;;;;;11.69;76.73;100674.53;4997594;28;20034;-68
2022/07/28 02:57:27;;;;;;;5.25;3.00;;;;;;;11.65;76.51;100674.75;5013932;28;20083;-69
2022/07/28 02:59:54;;;;;;;5.88;3.30;;;;;;;11.66;76.05;100672.69;5013034;28;20068;-69
2022/07/28 03:02:24;;;;;;;5.53;3.40;;;;;;;11.62;76.24;100684.31;4996550;28;20036;-69
2022/07/28 03:05:01;;;;;;;9.65;3.63;;;;;;;11.61;76.41;100687.66;5013162;28;20026;-70
2022/07/28 03:07:28;;;;;;;7.55;3.13;;;;;;;11.55;76.73;100696.16;5012298;28;20088;-71
2022/07/28 03:09:53;;;;;;;4.40;2.90;;;;;;;11.56;76.99;100691.22;5014206;28;20030;-69
2022/07/28 03:12:19;;;;;;;7.88;3.60;;;;;;;11.59;76.90;100698.81;5014268;28;20091;-70
2022/07/28 03:14:45;;;;;;;9.90;3.67;;;;;;;11.58;77.10;100698.00;4982071;28;20483;-69
2022/07/28 03:17:11;;;;;;;11.43;3.63;;;;;;;11.57;77.35;100701.34;5015363;28;20034;-69
2022/07/28 03:19:36;;;;;;;6.95;3.80;;;;;;;11.59;77.22;100705.31;4997092;28;20407;-69
2022/07/28 03:22:03;;;;;;;7.72;4.13;;;;;;;11.65;77.37;100706.25;5013863;28;20084;-69
2022/07/28 03:24:34;;;;;;;5.40;3.05;;;;;;;11.65;77.29;100705.44;5013679;28;20038;-69
2022/07/28 03:27:31;;;;;;;9.57;3.67;;;;;;;11.72;77.16;100714.44;5013690;28;20092;-68
2022/07/28 03:30:04;;;;;;;7.30;3.67;;;;;;;11.78;76.89;100711.69;4997657;28;20386;-69
2022/07/28 03:32:34;;;;;;;6.32;3.50;;;;;;;11.77;77.13;100716.59;5015132;28;20030;-69
2022/07/28 03:35:01;;;;;;;6.43;2.97;;;;;;;11.86;76.98;100714.97;5013727;28;20034;-70
2022/07/28 03:37:49;;;;;;;4.20;3.08;;;;;;;11.96;76.52;100720.06;5013881;28;20125;-69
2022/07/28 03:40:15;;;;;;;7.88;3.13;;;;;;;11.91;76.24;100720.78;5013919;28;20455;-69
2022/07/28 03:42:46;;;;;;;9.57;4.20;;;;;;;11.98;76.31;100725.31;4997307;28;20501;-69
2022/07/28 03:45:14;;;;;;;5.78;3.17;;;;;;;12.08;75.62;100727.59;4982405;28;20042;-69
2022/07/28 03:47:55;;;;;;;8.32;3.35;;;;;;;12.07;74.82;100728.09;4997227;28;20045;-70
2022/07/28 03:50:23;;;;;;;8.27;3.38;;;;;;;12.10;74.98;100735.72;5011507;28;20034;-68
2022/07/28 03:52:49;;;;;;;11.93;4.28;;;;;;;12.10;74.70;100736.50;5013292;28;20113;-69
2022/07/28 03:55:15;;;;;;;7.28;4.05;;;;;;;12.11;74.22;100743.03;5013541;28;20144;-68
2022/07/28 03:57:41;;;;;;;9.60;3.72;;;;;;;12.14;74.18;100744.91;5014500;28;20033;-68
2022/07/28 04:00:09;;;;;;;13.15;4.93;;;;;;;12.18;74.19;100746.28;5014620;28;20030;-70
2022/07/28 04:02:42;;;;;;;5.68;3.63;;;;;;;12.17;73.98;100741.03;5013686;28;20514;-69
2022/07/28 04:05:15;;;;;;;4.70;3.58;;;;;;;12.19;73.88;100739.28;4997310;28;20040;-68
2022/07/28 04:07:42;;;;;;;8.18;3.63;;;;;;;12.24;73.58;100744.31;5013314;28;20038;-70
2022/07/28 04:10:18;;;;;;;15.02;3.72;;;;;;;12.32;73.43;100749.63;5012980;28;20403;-70
2022/07/28 04:12:50;;;;;;;9.95;4.40;;;;;;;12.37;73.05;100746.91;5014243;28;20483;-70
2022/07/28 04:15:17;;;;;;;9.00;3.97;;;;;;;12.45;73.13;100753.84;5013307;28;20033;-69
2022/07/28 04:17:44;;;;;;;7.20;3.30;;;;;;;12.50;72.88;100747.41;4996927;28;20103;-67
2022/07/28 04:20:12;;;;;;;6.78;3.53;;;;;;;12.55;72.61;100740.19;5012871;28;20054;-69
2022/07/28 04:22:38;;;;;;;5.65;2.92;;;;;;;12.61;72.34;100741.03;5014051;28;20038;-69
2022/07/28 04:25:06;;;;;;;9.43;4.22;;;;;;;12.70;72.15;100747.44;5013953;28;20036;-70
2022/07/28 04:27:35;;;;;;;6.50;3.22;;;;;;;12.78;71.81;100747.06;4996704;28;20038;-69
2022/07/28 04:30:12;;;;;;;7.68;4.65;;;;;;;12.85;71.17;100738.06;5012677;28;20046;-69
2022/07/28 04:32:44;;;;;;;11.23;4.88;;;;;;;12.94;70.94;100743.66;5012830;28;20037;-70
2022/07/28 04:35:12;;;;;;;8.32;3.75;;;;;;;13.05;70.93;100744.59;5012888;28;20034;-69
2022/07/28 04:37:38;;;;;;;12.23;3.63;;;;;;;13.16;70.61;100746.03;5012740;28;20034;-70
2022/07/28 04:40:18;;;;;;;9.48;3.67;;;;;;;13.26;70.22;100748.28;4996713;28;20104;-69
2022/07/28 04:42:44;;;;;;;7.03;3.42;;;;;;;13.36;69.71;100743.19;5012722;28;20034;-69
2022/07/28 04:45:10;;;;;;;9.98;3.38;;;;;;;13.45;69.20;100749.59;5014080;28;20037;-69
2022/07/28 04:47:36;;;;;;;5.85;3.03;;;;;;;13.58;68.93;100742.72;5014161;28;20017;-70
2022/07/28 04:50:04;;;;;;;7.30;3.15;;;;;;;13.68;68.38;100741.28;5012503;28;20364;-69
2022/07/28 04:52:29;;;;;;;7.82;4.00;;;;;;;13.79;68.15;100741.41;5012437;28;20050;-69
2022/07/28 04:54:55;;;;;;;5.53;3.88;;;;;;;13.89;67.04;100739.94;5014042;28;20096;-70
2022/07/28 04:57:35;;;;;;;9.18;3.17;;;;;;;14.00;66.94;100740.06;5013695;28;20391;-69
2022/07/28 05:00:00;;;;;;;8.10;2.55;;;;;;;14.09;66.38;100730.50;5013817;28;20030;-69
2022/07/28 05:02:27;;;;;;;5.05;2.85;;;;;;;14.17;66.00;100740.25;4996087;28;20030;-70
2022/07/28 05:04:54;;;;;;;12.02;3.85;;;;;;;14.26;65.72;100740.09;5009455;28;20100;-71
2022/07/28 05:07:19;;;;;;;18.73;4.80;;;;;;;14.35;65.08;100737.81;5013853;28;20021;-69
2022/07/28 05:09:45;;;;;;;16.10;3.80;;;;;;;14.40;64.51;100737.09;5012243;28;20030;-69
2022/07/28 05:12:12;;;;;;;14.55;5.88;;;;;;;14.51;64.47;100739.28;5013750;28;20030;-71
2022/07/28 05:14:38;;;;;;;14.77;3.20;;;;;;;14.63;64.04;100740.16;4995869;28;20034;-70
2022/07/28 05:17:04;;;;;;;7.93;2.92;;;;;;;14.73;63.71;100744.44;5013447;28;20026;-69
2022/07/28 05:19:31;;;;;;;10.18;3.20;;;;;;;14.81;63.25;100754.97;5013226;28;20050;-70
2022/07/28 05:21:58;;;;;;;10.77;3.15;;;;;;;14.93;62.95;100749.28;5013447;28;20034;-70
2022/07/28 05:24:24;;;;;;;9.48;3.20;;;;;;;15.08;62.58;100749.91;5013260;28;20029;-69
2022/07/28 05:26:49;;;;;;;5.72;2.53;;;;;;;15.20;62.44;100760.22;5013321;28;20109;-70
2022/07/28 05:29:18;;;;;;;12.73;3.55;;;;;;;15.30;61.61;100750.06;5014296;28;20098;-69
2022/07/28 05:31:45;;;;;;;21.60;3.20;;;;;;;15.43;61.77;100749.59;5017235;28;20470;-69
2022/07/28 05:34:11;;;;;;;11.27;2.80;;;;;;;15.56;61.24;100747.03;5016224;28;20024;-71
2022/07/28 05:36:37;;;;;;;6.65;2.03;;;;;;;15.62;60.71;100750.75;5017302;28;20457;-70
2022/07/28 05:39:04;;;;;;;6.63;2.05;;;;;;;15.71;60.30;100755.53;5014690;28;20446;-70
2022/07/28 05:41:43;;;;;;;4.63;2.05;;;;;;;15.80;59.49;100761.06;5015752;28;20041;-69
2022/07/28 05:44:10;;;;;;;3.30;2.50;;;;;;;15.95;59.21;100758.75;5017853;28;20022;-71
2022/07/28 05:46:36;;;;;;;6.53;1.88;;;;;;;16.02;58.37;100764.00;5016955;28;20036;-69
2022/07/28 05:49:02;;;;;;;6.00;1.90;;;;;;;16.13;57.53;100767.69;5014645;28;20041;-69
2022/07/28 05:51:30;;;;;;;3.50;1.90;;;;;;;16.21;56.76;100762.19;5015188;28;20034;-70
2022/07/28 05:53:56;;;;;;;3.67;2.28;;;;;;;16.28;56.04;100763.78;5015588;28;20035;-71
2022/07/28 05:56:27;;;;;;;6.38;2.28;;;;;;;16.34;56.18;100750.16;4997780;28;20029;-70
2022/07/28 05:58:55;;;;;;;7.28;2.65;;;;;;;16.61;55.96;100781.16;5015743;28;20022;-70
2022/07/28 06:01:21;;;;;;;6.53;2.13;;;;;;;16.71;55.30;100779.59;5015396;28;20057;-70
2022/07/28 06:03:48;;;;;;;8.25;2.70;;;;;;;16.84;54.67;100774.09;5015458;28;20022;-69
2022/07/28 06:06:13;;;;;;;10.02;4.00;;;;;;;17.00;53.94;100781.16;5015587;28;20101;-70
2022/07/28 06:08:40;;;;;;;7.97;2.92;;;;;;;17.13;53.73;100781.41;5013914;28;20119;-71
2022/07/28 06:11:10;;;;;;;5.30;1.83;;;;;;;17.29;52.70;100788.47;5016378;28;20022;-70
2022/07/28 06:13:41;;;;;;;6.25;2.30;;;;;;;17.40;51.64;100786.34;5015240;28;20025;-71
2022/07/28 06:16:07;;;;;;;4.22;2.28;;;;;;;17.53;51.35;100791.59;4980777;28;20498;-72
2022/07/28 06:18:34;;;;;;;3.88;1.90;;;;;;;17.73;50.48;100781.81;5016186;28;20066;-73
2022/07/28 06:21:00;;;;;;;3.25;1.17;;;;;;;17.87;50.37;100794.38;5015519;28;20213;-73
2022/07/28 06:23:27;;;;;;;3.88;1.55;;;;;;;18.03;49.95;100784.84;5014848;28;20116;-73
2022/07/28 06:25:53;;;;;;;3.00;1.33;;;;;;;18.13;48.92;100795.53;5014889;28;20029;-72
2022/07/28 06:28:20;;;;;;;1.75;1.33;;;;;;;18.35;48.82;100799.66;5016173;28;20022;-70
2022/07/28 06:30:47;;;;;;;3.92;1.77;;;;;;;18.53;47.34;100801.91;5015969;28;20048;-70
2022/07/28 06:33:15;;;;;;;5.22;2.58;;;;;;;18.73;47.42;100803.59;5014978;28;20481;-71
2022/07/28 06:35:42;;;;;;;7.03;1.83;;;;;;;19.26;46.80;100797.13;5015750;28;20041;-73
2022/07/28 06:38:08;;;;;;;8.20;1.50;;;;;;;21.78;44.80;100795.69;5014608;28;20034;-73
2022/07/28 06:40:36;;;;;;;6.35;1.27;;;;;;;25.49;37.16;100797.56;5015420;28;20029;-74
2022/07/28 06:43:02;;;;;;;3.67;1.52;;;;;;;29.13;31.96;100798.91;4997677;28;20542;-72
2022/07/28 06:45:32;;;;;;;20.75;2.28;;;;;;;32.12;27.66;100788.13;5014920;28;20037;-74
2022/07/28 06:47:57;;;;;;;8.25;1.60;;;;;;;35.06;23.32;100799.22;5015605;28;20025;-75
2022/07/28 06:50:22;;;;;;;14.75;2.17;;;;;;;37.28;21.53;100788.50;5015668;28;20364;-75
2022/07/28 06:52:48;;;;;;;7.13;1.63;;;;;;;38.89;17.42;100785.19;5014486;28;20100;-77
2022/07/28 06:55:15;;;;;;;6.22;1.23;;;;;;;40.21;17.27;100784.97;5016206;28;20105;-79
2022/07/28 06:57:42;;;;;;;7.20;1.40;;;;;;;41.51;16.29;100774.22;4995840;28;20038;-79
2022/07/28 07:00:12;;;;;;;4.15;0.98;;;;;;;42.71;14.52;100766.94;4994906;28;20072;-79
2022/07/28 07:02:40;;;;;;;2.10;0.70;;;;;;;43.66;13.78;100768.31;4997150;28;20026;-78
2022/07/28 07:05:08;;;;;;;4.22;1.27;;;;;;;44.86;13.00;100756.91;5004832;28;20014;-81
2022/07/28 07:07:35;;;;;;;2.17;0.90;;;;;;;45.58;11.66;100747.31;5013462;28;20018;-88
2022/07/28 07:10:04;;;;;;;4.55;0.90;;;;;;;46.48;11.74;100755.81;4988224;28;20057;-87
2022/07/28 07:12:37;;;;;;;3.05;0.93;;;;;;;47.50;10.21;100760.97;5019722;28;20022;-86
2022/07/28 07:15:05;;;;;;;1.17;0.63;;;;;;;48.14;10.33;100753.56;5006131;28;20026;-76
2022/07/28 07:17:31;;;;;;;1.58;0.52;;;;;;;48.43;10.02;100748.25;5011567;28;20044;-76
2022/07/28 07:19:58;;;;;;;2.05;0.88;;;;;;;49.02;9.75;100748.19;4999063;28;20500;-76
2022/07/28 07:22:25;;;;;;;3.70;1.35;;;;;;;49.50;9.14;100747.25;5017152;28;20026;-75
2022/07/28 07:24:50;;;;;;;2.33;0.80;;;;;;;49.94;8.55;100743.94;5008740;28;20030;-78
2022/07/28 07:27:18;;;;;;;1.75;0.90;;;;;;;50.33;8.42;100744.41;5012370;28;20045;-76
2022/07/28 07:29:43;;;;;;;3.15;0.63;;;;;;;50.35;8.01;100723.09;5015894;28;20026;-76
2022/07/28 07:32:08;;;;;;;4.78;1.05;;;;;;;50.49;8.83;100740.47;5015613;28;20018;-76
2022/07/28 07:34:34;;;;;;;1.70;0.75;;;;;;;51.00;7.68;100732.28;4994580;28;20044;-77
2022/07/28 07:36:59;;;;;;;2.67;0.90;;;;;;;51.42;7.42;100731.03;5003227;28;20387;-75
2022/07/28 07:39:26;;;;;;;3.20;0.65;;;;;;;51.36;7.95;100737.19;5010997;28;20033;-77
2022/07/28 07:41:51;;;;;;;4.28;0.70;;;;;;;51.14;6.79;100730.66;5016416;28;20108;-79
2022/07/28 07:44:20;;;;;;;6.82;1.05;;;;;;;50.55;7.66;100734.34;5002529;28;20138;-79
2022/07/28 07:46:47;;;;;;;3.05;1.35;;;;;;;50.30;7.78;100727.69;4997160;28;20034;-76
2022/07/28 07:49:12;;;;;;;1.67;0.52;;;;;;;49.76;7.30;100738.69;5001778;28;20034;-77
2022/07/28 07:51:38;;;;;;;2.63;0.75;;;;;;;49.59;7.45;100743.38;4990281;28;20376;-79
2022/07/28 07:54:04;;;;;;;1.40;0.80;;;;;;;49.20;7.37;100739.00;5013547;28;20009;-79
2022/07/28 07:56:30;;;;;;;2.47;0.93;;;;;;;49.05;7.32;100729.19;5007771;28;20026;-78
2022/07/28 07:58:56;;;;;;;0.63;0.50;;;;;;;48.92;7.17;100725.41;5016139;28;20033;-77
2022/07/28 08:01:26;;;;;;;2.20;0.63;;;;;;;49.65;7.33;100730.44;5016715;28;20014;-76
2022/07/28 08:03:51;;;;;;;2.83;0.82;;;;;;;50.03;7.37;100717.25;5015042;28;20041;-77
2022/07/28 08:06:17;;;;;;;1.05;0.70;;;;;;;49.89;6.92;100712.03;5009523;28;20034;-76
2022/07/28 08:08:42;;;;;;;3.28;1.40;;;;;;;49.78;7.44;100711.38;4985754;28;20101;-79
2022/07/28 08:11:09;;;;;;;4.35;0.90;;;;;;;50.15;7.05;100714.91;4986938;28;20391;-77
2022/07/28 08:13:36;;;;;;;2.35;1.70;;;;;;;50.30;6.98;100708.69;5012162;28;20498;-76
2022/07/28 08:16:03;;;;;;;3.20;1.08;;;;;;;50.54;7.52;100711.50;5011511;28;20033;-76
2022/07/28 08:18:28;;;;;;;1.77;0.80;;;;;;;50.37;7.31;100707.06;5013520;28;20030;-77
2022/07/28 08:20:54;;;;;;;1.48;0.70;;;;;;;50.49;7.22;100710.03;4986806;28;20084;-75
2022/07/28 08:23:19;;;;;;;3.85;0.80;;;;;;;50.18;7.18;100709.53;4997227;28;20022;-76
2022/07/28 08:25:45;;;;;;;2.30;0.80;;;;;;;50.38;7.52;100703.25;4999706;28;20109;-75
2022/07/28 08:28:10;;;;;;;1.35;0.80;;;;;;;50.05;7.15;100699.75;5001742;28;20117;-75
2022/07/28 08:30:38;;;;;;;3.53;0.90;;;;;;;49.66;7.35;100701.56;5008409;28;20470;-75
2022/07/28 08:33:04;;;;;;;2.60;0.68;;;;;;;48.89;7.00;100693.56;4998702;28;20040;-76
2022/07/28 08:35:29;;;;;;;4.88;0.90;;;;;;;48.01;8.59;100694.41;4999614;28;20471;-76
2022/07/28 08:37:56;;;;;;;0.98;0.88;;;;;;;47.46;8.69;100687.47;5006211;28;20407;-82
2022/07/28 08:40:21;;;;;;;5.68;1.30;;;;;;;47.04;8.76;100688.84;5016066;28;20014;-80
2022/07/28 08:43:02;;;;;;;7.68;1.25;;;;;;;46.73;8.44;100690.94;5014189;28;20236;-80
2022/07/28 08:45:31;;;;;;;3.00;0.77;;;;;;;46.24;9.51;100679.97;5010564;28;20113;-81
2022/07/28 08:47:58;;;;;;;6.47;1.73;;;;;;;45.83;9.59;100675.81;4998221;28;20042;-79
2022/07/28 08:50:31;;;;;;;2.55;1.30;;;;;;;45.50;9.46;100681.53;5015345;28;20025;-81
2022/07/28 08:52:57;;;;;;;1.75;0.70;;;;;;;44.56;9.71;100675.78;5009355;28;20029;-81
2022/07/28 08:55:27;;;;;;;1.35;0.75;;;;;;;43.71;10.17;100677.31;5000031;28;20034;-78
2022/07/28 08:57:56;;;;;;;3.97;0.75;;;;;;;42.94;10.62;100672.75;4993546;28;20034;-80
2022/07/28 09:00:24;;;;;;;4.78;1.52;;;;;;;42.00;11.03;100665.97;4992807;28;20082;-80
2022/07/28 09:02:50;;;;;;;8.85;1.88;;;;;;;41.54;11.34;100667.72;4976539;28;20030;-81
2022/07/28 09:05:22;;;;;;;3.95;1.15;;;;;;;41.15;11.80;100666.63;4994626;28;20475;-80
2022/07/28 09:07:52;;;;;;;1.98;0.82;;;;;;;40.78;11.65;100670.00;5000969;28;20391;-76
2022/07/28 09:10:19;;;;;;;5.28;1.40;;;;;;;40.36;12.16;100663.41;5016427;28;20037;-80
2022/07/28 09:12:46;;;;;;;4.40;0.82;;;;;;;39.15;12.37;100665.88;5016839;28;20113;-80
2022/07/28 09:15:12;;;;;;;8.48;1.50;;;;;;;37.87;13.58;100675.59;4998972;28;20057;-80
2022/07/28 09:17:42;;;;;;;3.17;1.02;;;;;;;37.15;13.98;100664.16;4999034;28;20064;-80
2022/07/28 09:20:11;;;;;;;2.67;0.88;;;;;;;36.76;15.03;100668.31;4983346;28;20137;-80
2022/07/28 09:22:59;;;;;;;4.18;0.93;;;;;;;36.64;14.44;100688.56;4999258;28;20368;-80
2022/07/28 09:25:31;;;;;;;5.22;1.10;;;;;;;35.86;14.72;100683.16;5015873;28;20053;-81
2022/07/28 09:28:09;;;;;;;9.90;1.45;;;;;;;35.28;16.04;100686.78;5000029;28;20113;-81
2022/07/28 09:30:48;;;;;;;7.88;2.03;;;;;;;34.82;15.97;100690.16;5015509;28;20057;-80
2022/07/28 09:33:24;;;;;;;55.10;7.47;;;;;;;34.78;16.38;100696.63;5015953;28;20021;-79
2022/07/28 09:35:52;;;;;;;5.50;2.10;;;;;;;34.53;16.63;100694.47;5015334;28;20050;-80
2022/07/28 09:38:20;;;;;;;5.78;1.17;;;;;;;34.10;16.89;100690.44;4999374;28;20029;-80
2022/07/28 09:40:57;;;;;;;4.28;1.02;;;;;;;33.94;17.29;100696.19;5013549;28;20132;-81
2022/07/28 09:43:42;;;;;;;2.28;0.98;;;;;;;33.82;16.92;100690.28;5016617;28;20503;-80
2022/07/28 09:46:10;;;;;;;3.15;1.33;;;;;;;33.47;17.34;100681.47;5015417;28;20030;-81
2022/07/28 09:48:50;;;;;;;2.10;0.85;;;;;;;33.11;17.80;100682.19;5016561;28;20026;-81
2022/07/28 09:51:19;;;;;;;2.30;0.70;;;;;;;32.70;18.01;100684.75;5016908;28;20041;-80
2022/07/28 09:53:44;;;;;;;21.42;3.90;;;;;;;32.30;19.04;100685.06;5016846;28;20018;-81
2022/07/28 09:56:12;;;;;;;2.40;1.25;;;;;;;32.31;19.41;100669.63;5016550;28;20360;-80
2022/07/28 09:58:39;;;;;;;0.75;0.68;;;;;;;32.42;19.34;100665.16;5014555;28;20040;-79
2022/07/28 10:01:11;;;;;;;2.78;0.73;;;;;;;32.38;18.38;100661.94;4999022;28;20376;-80
2022/07/28 10:03:42;;;;;;;3.22;1.10;;;;;;;32.23;19.40;100657.28;4998813;28;20026;-80
2022/07/28 10:06:30;;;;;;;1.23;0.68;;;;;;;32.06;19.71;100657.56;4982561;28;20034;-79
2022/07/28 10:09:01;;;;;;;2.03;0.90;;;;;;;31.93;19.80;100656.00;5014712;28;20038;-80
2022/07/28 10:11:29;;;;;;;7.18;1.45;;;;;;;31.98;19.39;100651.91;5016765;28;20471;-78
2022/07/28 10:14:04;;;;;;;3.53;1.00;;;;;;;32.01;19.46;100655.75;5014999;28;20546;-79
2022/07/28 10:16:33;;;;;;;13.30;1.55;;;;;;;32.05;19.71;100639.03;5014893;28;20093;-79
2022/07/28 10:19:03;;;;;;;2.60;1.00;;;;;;;32.05;20.08;100647.91;5015969;28;20057;-80
2022/07/28 10:21:30;;;;;;;2.83;1.08;;;;;;;32.22;19.93;100638.75;5014842;28;20060;-80
2022/07/28 10:23:58;;;;;;;1.25;0.80;;;;;;;32.31;19.67;100639.25;4998466;28;20041;-80
2022/07/28 10:26:31;;;;;;;9.20;1.40;;;;;;;32.36;19.05;100644.81;4982132;28;20041;-79
2022/07/28 10:29:12;;;;;;;6.03;1.13;;;;;;;32.24;19.46;100644.03;5014860;28;20387;-79
2022/07/28 10:31:45;;;;;;;;;;;;;;;31.88;19.67;100645.31;5015320;28;20045;-79
2022/07/28 10:34:19;;;;;;;2.42;1.10;;;;;;;31.58;20.16;100641.03;5014546;28;19932;-79
2022/07/28 10:37:02;;;;;;;2.85;1.17;;;;;;;31.23;19.60;100640.84;5016037;28;20025;-79
2022/07/28 10:39:35;;;;;;;3.92;1.20;;;;;;;30.85;20.37;100635.94;5014259;28;20041;-78
2022/07/28 10:42:01;;;;;;;5.18;1.00;;;;;;;30.66;20.71;100636.06;5014229;28;20030;-79
2022/07/28 10:44:32;;;;;;;4.40;1.20;;;;;;;30.51;20.77;100637.16;5013890;28;20113;-80
2022/07/28 10:46:58;;;;;;;1.92;1.27;;;;;;;30.42;20.89;100628.34;5014438;28;20065;-80
2022/07/28 10:49:26;;;;;;;7.60;1.95;;;;;;;30.08;21.03;100630.28;5014297;28;20065;-78
2022/07/28 10:52:06;;;;;;;4.60;1.08;;;;;;;29.45;21.67;100629.88;5014251;28;20034;-79
2022/07/28 10:54:46;;;;;;;4.20;0.85;;;;;;;29.14;21.98;100626.75;5013979;28;20083;-79
2022/07/28 10:57:12;;;;;;;6.65;2.08;;;;;;;29.08;22.54;100635.91;5012067;28;20045;-79
2022/07/28 11:00:16;;;;;;;5.95;1.65;;;;;;;28.94;22.98;100622.97;5013635;28;20056;-79
2022/07/28 11:03:02;;;;;;;3.13;1.10;;;;;;;28.93;22.89;100621.44;5014161;28;20112;-79
2022/07/28 11:05:43;;;;;;;6.57;1.58;;;;;;;28.75;22.53;100631.75;5015651;28;20037;-80
2022/07/28 11:08:09;;;;;;;;;;;;;;;28.68;23.30;100626.78;5014383;28;20033;-79
2022/07/28 11:10:43;;;;;;;10.95;1.67;;;;;;;28.66;22.97;100620.72;5015472;28;19911;-79
2022/07/28 11:13:31;;;;;;;11.93;2.60;;;;;;;28.61;22.26;100631.41;5015236;28;20030;-79
2022/07/28 11:16:20;;;;;;;152.45;25.10;;;;;;;28.29;23.22;100626.56;5015547;28;20391;-79
2022/07/28 11:19:07;;;;;;;5.57;2.92;;;;;;;28.19;23.75;100619.13;4997354;28;20504;-79
2022/07/28 11:21:34;;;;;;;2.35;1.63;;;;;;;28.18;24.02;100633.03;5011542;28;20038;-79
2022/07/28 11:24:00;;;;;;;9.00;2.63;;;;;;;28.16;23.60;100623.25;5015102;28;20109;-79
2022/07/28 11:26:34;;;;;;;36.13;5.50;;;;;;;28.15;23.12;100625.41;5013957;28;20390;-79
2022/07/28 11:29:07;;;;;;;8.63;2.25;;;;;;;28.08;23.52;100620.44;5014427;28;20497;-79
2022/07/28 11:31:50;;;;;;;11.20;3.13;;;;;;;28.08;23.76;100619.66;5015191;28;20056;-78
2022/07/28 11:35:07;;;;;;;5.38;2.45;;;;;;;28.26;24.95;100621.16;5014656;28;20026;-78
2022/07/28 11:38:03;;;;;;;3.33;1.80;;;;;;;28.42;24.58;100616.59;4989070;28;20059;-78